Time;durP1;ratioP1;P1;durP2;ratioP2;P2;SDS_P1;SDS_P2;PMS_P1;PMS_P2;Temp;Humidity;BMP_temperature;BMP_pressure;BME280_temperature;BME280_humidity;BME280_pressure;Samples;Min_cycle;Max_cycle;Signal;HPM_P1;HPM_P2
2024/03/24 00:01:49;;;;;;;3.00;1.27;;;5.00;80.50;;;;;;5012846;28;20286;-72
2024/03/24 00:04:14;;;;;;;2.13;1.30;;;5.00;80.90;;;;;;5014420;28;21217;-71
2024/03/24 00:06:40;;;;;;;2.03;1.20;;;4.90;81.50;;;;;;5012011;28;20187;-71
2024/03/24 00:09:06;;;;;;;2.20;1.20;;;4.80;82.10;;;;;;5014495;28;20216;-73
2024/03/24 00:11:32;;;;;;;1.20;1.00;;;4.80;82.70;;;;;;5007797;28;20269;-73
2024/03/24 00:13:58;;;;;;;2.77;1.80;;;4.80;83.10;;;;;;5009802;28;20418;-71
2024/03/24 00:16:24;;;;;;;1.70;1.20;;;4.70;83.60;;;;;;5012152;28;20428;-74
2024/03/24 00:18:49;;;;;;;2.90;1.30;;;4.70;83.70;;;;;;5011293;28;20185;-72
2024/03/24 00:21:15;;;;;;;2.90;1.30;;;4.70;84.10;;;;;;5008415;28;20206;-71
2024/03/24 00:23:40;;;;;;;4.30;1.30;;;4.60;84.40;;;;;;5013539;28;20194;-75
2024/03/24 00:26:06;;;;;;;2.70;1.53;;;4.50;84.70;;;;;;5011963;28;20209;-72
2024/03/24 00:28:32;;;;;;;3.93;1.60;;;4.50;84.90;;;;;;5012938;28;20229;-72
2024/03/24 00:30:57;;;;;;;2.27;1.60;;;4.40;85.30;;;;;;5009573;28;20221;-71
2024/03/24 00:33:23;;;;;;;2.50;1.37;;;4.40;85.50;;;;;;5011528;28;20265;-72
2024/03/24 00:35:48;;;;;;;3.30;1.63;;;4.40;85.70;;;;;;5013355;28;20187;-72
2024/03/24 00:38:14;;;;;;;6.23;1.53;;;4.40;85.70;;;;;;5010472;28;20230;-73
2024/03/24 00:40:40;;;;;;;2.23;1.50;;;4.40;85.70;;;;;;5008503;28;20202;-72
2024/03/24 00:43:05;;;;;;;4.37;1.90;;;4.30;85.90;;;;;;5009079;28;20210;-77
2024/03/24 00:45:31;;;;;;;5.70;1.60;;;4.30;86.00;;;;;;5007625;28;20198;-76
2024/03/24 00:47:56;;;;;;;1.47;1.10;;;4.40;86.20;;;;;;5011057;28;20234;-75
2024/03/24 00:50:22;;;;;;;3.77;1.70;;;4.30;85.70;;;;;;5013468;28;20206;-74
2024/03/24 00:52:48;;;;;;;3.30;1.20;;;4.30;85.70;;;;;;5007279;28;20229;-74
2024/03/24 00:55:13;;;;;;;2.13;1.17;;;4.30;85.70;;;;;;5017019;28;20254;-70
2024/03/24 00:57:39;;;;;;;3.37;1.33;;;4.30;85.70;;;;;;5012736;28;20230;-71
2024/03/24 01:00:06;;;;;;;2.67;1.50;;;4.30;85.70;;;;;;5014338;28;20183;-71
2024/03/24 01:02:31;;;;;;;1.80;1.20;;;4.30;85.90;;;;;;5011798;28;20273;-70
2024/03/24 01:04:58;;;;;;;1.80;1.10;;;4.30;85.60;;;;;;5014446;28;20513;-71
2024/03/24 01:07:23;;;;;;;3.83;2.03;;;4.30;85.60;;;;;;5013858;28;20241;-71
2024/03/24 01:09:53;;;;;;;2.03;1.60;;;4.30;85.70;;;;;;5019139;28;20467;-71
2024/03/24 01:12:19;;;;;;;2.97;1.90;;;4.40;85.60;;;;;;5011277;28;20197;-72
2024/03/24 01:14:44;;;;;;;5.83;1.60;;;4.40;85.30;;;;;;5014878;28;20468;-71
2024/03/24 01:17:10;;;;;;;3.40;1.40;;;4.40;85.20;;;;;;5013731;28;20222;-70
2024/03/24 01:19:35;;;;;;;3.40;1.57;;;4.40;85.20;;;;;;5013497;28;20186;-71
2024/03/24 01:22:01;;;;;;;2.90;1.47;;;4.40;85.00;;;;;;5012389;28;20210;-70
2024/03/24 01:24:26;;;;;;;3.33;1.50;;;4.50;84.70;;;;;;5003801;28;20277;-72
2024/03/24 01:26:52;;;;;;;1.90;1.30;;;4.50;84.90;;;;;;5006015;28;20213;-70
2024/03/24 01:29:18;;;;;;;3.17;1.40;;;4.50;84.90;;;;;;5012258;28;20187;-72
2024/03/24 01:31:43;;;;;;;3.07;1.10;;;4.50;85.20;;;;;;5007767;28;20468;-70
2024/03/24 01:34:09;;;;;;;3.30;1.50;;;4.40;85.60;;;;;;5011947;28;20195;-70
2024/03/24 01:36:35;;;;;;;3.43;1.50;;;4.30;86.00;;;;;;5015945;28;20222;-70
2024/03/24 01:39:01;;;;;;;3.37;1.57;;;4.30;86.60;;;;;;5013257;28;20190;-70
2024/03/24 01:41:28;;;;;;;1.70;1.13;;;4.30;86.20;;;;;;5016474;28;20218;-72
2024/03/24 01:43:53;;;;;;;2.63;1.47;;;4.30;86.20;;;;;;5012693;28;20452;-72
2024/03/24 01:46:19;;;;;;;2.43;1.50;;;4.40;86.30;;;;;;5005961;28;20429;-71
2024/03/24 01:48:44;;;;;;;2.07;1.50;;;4.40;86.20;;;;;;5003333;28;20896;-71
2024/03/24 01:51:12;;;;;;;2.63;1.30;;;4.40;86.00;;;;;;4999708;28;20696;-71
2024/03/24 01:53:38;;;;;;;1.60;1.27;;;4.50;86.00;;;;;;5007826;28;20188;-70
2024/03/24 01:56:04;;;;;;;1.83;1.10;;;4.50;85.70;;;;;;5013715;28;20425;-72
2024/03/24 01:58:34;;;;;;;3.30;1.43;;;4.50;85.60;;;;;;5010102;28;21001;-71
2024/03/24 02:01:00;;;;;;;3.20;0.90;;;4.50;85.60;;;;;;5003627;28;20453;-70
2024/03/24 02:03:34;;;;;;;3.00;1.13;;;4.50;85.50;;;;;;5011036;28;20410;-71
2024/03/24 02:06:00;;;;;;;1.97;1.27;;;4.50;85.70;;;;;;4999153;28;20433;-72
2024/03/24 02:08:28;;;;;;;1.57;1.10;;;4.50;85.90;;;;;;5019090;28;20524;-71
2024/03/24 02:10:55;;;;;;;1.83;1.23;;;4.50;86.20;;;;;;5005758;28;20619;-72
2024/03/24 02:13:21;;;;;;;2.93;1.13;;;4.40;86.00;;;;;;5015516;28;20429;-70
2024/03/24 02:15:49;;;;;;;2.80;1.40;;;4.40;86.20;;;;;;5012787;28;20429;-71
2024/03/24 02:18:14;;;;;;;5.07;1.10;;;4.50;86.20;;;;;;5020612;28;20592;-71
2024/03/24 02:20:40;;;;;;;2.07;1.10;;;4.50;86.60;;;;;;5013882;28;20418;-71
2024/03/24 02:23:06;;;;;;;1.30;0.70;;;4.50;85.70;;;;;;5011169;28;20191;-71
2024/03/24 02:25:31;;;;;;;1.63;0.90;;;4.50;85.60;;;;;;5013441;28;20182;-72
2024/03/24 02:27:57;;;;;;;1.77;1.03;;;4.40;85.00;;;;;;5010073;28;20178;-71
2024/03/24 02:30:22;;;;;;;2.30;1.87;;;4.40;85.30;;;;;;5006604;28;20205;-70
2024/03/24 02:32:48;;;;;;;2.50;1.17;;;4.40;85.50;;;;;;5003127;28;20211;-72
2024/03/24 02:35:13;;;;;;;2.60;1.07;;;4.40;85.50;;;;;;5002633;28;20190;-71
2024/03/24 02:37:39;;;;;;;2.43;1.10;;;4.40;85.30;;;;;;4999139;28;20226;-71
2024/03/24 02:40:09;;;;;;;3.27;1.20;;;4.40;85.50;;;;;;5017111;28;20173;-70
2024/03/24 02:42:35;;;;;;;4.00;1.10;;;4.40;85.60;;;;;;5011446;28;20229;-72
2024/03/24 02:45:00;;;;;;;1.80;1.10;;;4.30;85.60;;;;;;5017908;28;20413;-71
2024/03/24 02:47:26;;;;;;;2.27;1.40;;;4.40;85.90;;;;;;5016729;28;20497;-71
2024/03/24 02:49:51;;;;;;;2.23;1.20;;;4.40;85.70;;;;;;5012201;28;20175;-72
2024/03/24 02:52:17;;;;;;;3.87;1.10;;;4.40;85.50;;;;;;5012640;28;20229;-70
2024/03/24 02:54:42;;;;;;;2.17;1.10;;;4.40;85.50;;;;;;5010710;28;20194;-70
2024/03/24 02:57:08;;;;;;;2.13;1.10;;;4.40;85.30;;;;;;5016944;28;20214;-70
2024/03/24 02:59:34;;;;;;;1.17;0.90;;;4.30;85.20;;;;;;5017758;28;20190;-71
2024/03/24 03:01:59;;;;;;;1.27;0.80;;;4.30;85.20;;;;;;5011912;28;20206;-72
2024/03/24 03:04:25;;;;;;;1.97;1.30;;;4.40;84.70;;;;;;5022163;28;20241;-70
2024/03/24 03:06:51;;;;;;;1.47;0.90;;;4.30;84.30;;;;;;5019745;28;20215;-71
2024/03/24 03:09:17;;;;;;;1.57;1.00;;;4.30;84.30;;;;;;5020204;28;20197;-70
2024/03/24 03:11:43;;;;;;;1.80;1.20;;;4.40;84.30;;;;;;4997967;28;20492;-71
2024/03/24 03:14:09;;;;;;;1.63;1.10;;;4.40;84.10;;;;;;5012390;28;20402;-70
2024/03/24 03:16:34;;;;;;;2.90;1.23;;;4.30;84.00;;;;;;5014027;28;20429;-70
2024/03/24 03:19:00;;;;;;;2.53;1.20;;;4.40;84.00;;;;;;5014483;28;20615;-69
2024/03/24 03:21:26;;;;;;;2.50;1.10;;;4.40;84.00;;;;;;5005721;28;20202;-71
2024/03/24 03:23:53;;;;;;;3.30;1.73;;;4.40;84.00;;;;;;5007618;28;20460;-72
2024/03/24 03:26:20;;;;;;;2.17;1.07;;;4.40;84.00;;;;;;5007851;28;20206;-71
2024/03/24 03:28:46;;;;;;;1.90;1.10;;;4.40;84.00;;;;;;5003823;28;21253;-70
2024/03/24 03:31:12;;;;;;;2.00;1.20;;;4.40;84.00;;;;;;5006612;28;20462;-70
2024/03/24 03:33:37;;;;;;;1.30;1.00;;;4.40;83.70;;;;;;5011956;28;20446;-71
2024/03/24 03:36:03;;;;;;;2.20;1.40;;;4.40;83.60;;;;;;5009136;28;20198;-71
2024/03/24 03:38:29;;;;;;;1.80;1.17;;;4.40;83.80;;;;;;5005344;28;20257;-70
2024/03/24 03:40:55;;;;;;;1.40;1.00;;;4.40;83.80;;;;;;5008129;28;20473;-72
2024/03/24 03:43:21;;;;;;;1.50;1.10;;;4.50;83.80;;;;;;5005885;28;20265;-72
2024/03/24 03:45:47;;;;;;;1.43;1.03;;;4.40;83.30;;;;;;5007189;28;20693;-71
2024/03/24 03:48:13;;;;;;;1.10;0.80;;;4.40;83.30;;;;;;5004914;28;20418;-71
2024/03/24 03:50:41;;;;;;;2.50;1.10;;;4.40;83.30;;;;;;5001648;28;20444;-71
2024/03/24 03:53:07;;;;;;;4.03;1.33;;;4.50;83.60;;;;;;5002082;28;20429;-72
2024/03/24 03:55:33;;;;;;;4.03;1.20;;;4.40;83.60;;;;;;5004980;28;20421;-71
2024/03/24 03:58:00;;;;;;;1.50;1.00;;;4.40;83.70;;;;;;5004468;28;20571;-71
2024/03/24 04:00:26;;;;;;;2.13;1.00;;;4.40;83.60;;;;;;5005512;28;20479;-71
2024/03/24 04:02:52;;;;;;;1.20;1.00;;;4.40;83.60;;;;;;5006994;28;20453;-71
2024/03/24 04:05:18;;;;;;;1.73;0.90;;;4.40;83.70;;;;;;5012975;28;20216;-70
2024/03/24 04:07:44;;;;;;;2.60;1.00;;;4.40;83.70;;;;;;5012856;28;20426;-70
2024/03/24 04:10:09;;;;;;;2.40;1.10;;;4.40;83.80;;;;;;5015612;28;20429;-69
2024/03/24 04:12:36;;;;;;;1.20;0.97;;;4.30;83.80;;;;;;5010108;28;20458;-71
2024/03/24 04:15:03;;;;;;;1.17;0.70;;;4.40;84.00;;;;;;5007877;28;20194;-71
2024/03/24 04:17:29;;;;;;;1.10;0.80;;;4.40;83.70;;;;;;5013777;28;20473;-70
2024/03/24 04:19:56;;;;;;;1.40;1.00;;;4.40;84.00;;;;;;5014220;28;20425;-71
2024/03/24 04:22:22;;;;;;;1.37;0.87;;;4.40;84.00;;;;;;5006700;28;20462;-69
2024/03/24 04:24:48;;;;;;;1.63;1.00;;;4.30;84.00;;;;;;5001319;28;20429;-71
2024/03/24 04:27:17;;;;;;;1.90;1.00;;;4.40;84.10;;;;;;5012185;28;20421;-71
2024/03/24 04:29:43;;;;;;;3.77;1.37;;;4.40;84.00;;;;;;5012664;28;20426;-69
2024/03/24 04:32:09;;;;;;;1.30;1.00;;;4.40;84.10;;;;;;5006768;28;20485;-71
2024/03/24 04:34:35;;;;;;;3.77;1.00;;;4.40;83.80;;;;;;5005675;28;20621;-70
2024/03/24 04:37:01;;;;;;;1.63;0.97;;;4.40;83.80;;;;;;5009380;28;20470;-72
2024/03/24 04:39:27;;;;;;;2.70;1.00;;;4.40;84.00;;;;;;5012223;28;20512;-70
2024/03/24 04:41:53;;;;;;;1.40;0.93;;;4.40;83.70;;;;;;5009049;28;20232;-71
2024/03/24 04:44:19;;;;;;;1.63;0.90;;;4.40;83.70;;;;;;5011104;28;20215;-70
2024/03/24 04:46:44;;;;;;;3.63;1.10;;;4.40;83.40;;;;;;5013092;28;20422;-70
2024/03/24 04:49:10;;;;;;;2.73;0.97;;;4.40;83.40;;;;;;5011968;28;20197;-71
2024/03/24 04:51:35;;;;;;;2.27;1.10;;;4.40;83.60;;;;;;5008501;28;20194;-70
2024/03/24 04:54:02;;;;;;;1.47;1.27;;;4.40;83.40;;;;;;5018510;28;20393;-71
2024/03/24 04:56:27;;;;;;;1.10;1.00;;;4.40;83.40;;;;;;5020285;28;20186;-71
2024/03/24 04:58:53;;;;;;;2.27;1.20;;;4.40;83.40;;;;;;5021546;28;20409;-70
2024/03/24 05:01:19;;;;;;;1.30;0.90;;;4.50;83.70;;;;;;5003297;28;20211;-72
2024/03/24 05:03:44;;;;;;;1.87;1.13;;;4.50;83.40;;;;;;5013516;28;20615;-72
2024/03/24 05:06:10;;;;;;;2.13;1.10;;;4.40;83.00;;;;;;5014577;28;20186;-69
2024/03/24 05:08:38;;;;;;;2.00;0.90;;;4.40;83.10;;;;;;5012560;28;20170;-69
2024/03/24 05:11:09;;;;;;;1.93;1.10;;;4.40;83.30;;;;;;5005465;28;20207;-70
2024/03/24 05:13:35;;;;;;;1.37;0.93;;;4.30;83.10;;;;;;5012030;28;20425;-71
2024/03/24 05:16:01;;;;;;;1.23;1.03;;;4.30;83.10;;;;;;5013334;28;20421;-70
2024/03/24 05:18:26;;;;;;;1.30;0.93;;;4.30;82.80;;;;;;5009280;28;20474;-71
2024/03/24 05:20:52;;;;;;;2.30;1.10;;;4.20;82.80;;;;;;5010076;28;20202;-69
2024/03/24 05:23:19;;;;;;;3.73;1.30;;;4.20;82.20;;;;;;5009487;28;20301;-70
2024/03/24 05:25:54;;;;;;;1.47;1.00;;;4.20;82.40;;;;;;5011544;28;20213;-70
2024/03/24 05:28:20;;;;;;;2.33;1.00;;;4.20;82.40;;;;;;5011395;28;20418;-71
2024/03/24 05:30:47;;;;;;;3.10;0.90;;;4.20;82.50;;;;;;5004708;28;20460;-69
2024/03/24 05:33:13;;;;;;;2.17;1.10;;;4.20;82.50;;;;;;5005166;28;20493;-70
2024/03/24 05:35:38;;;;;;;1.73;1.10;;;4.20;82.50;;;;;;5015807;28;20481;-69
2024/03/24 05:38:04;;;;;;;3.20;1.00;;;4.20;82.50;;;;;;5007755;28;20901;-71
2024/03/24 05:40:30;;;;;;;1.43;0.90;;;4.20;82.40;;;;;;5002687;28;20254;-69
2024/03/24 05:42:56;;;;;;;2.00;1.10;;;4.20;82.70;;;;;;5003244;28;20476;-70
2024/03/24 05:45:23;;;;;;;2.00;0.90;;;4.20;82.70;;;;;;5007926;28;20259;-71
2024/03/24 05:47:48;;;;;;;2.93;1.13;;;4.20;82.20;;;;;;5011795;28;20194;-70
2024/03/24 05:50:14;;;;;;;2.90;1.20;;;4.30;82.50;;;;;;5002793;28;20430;-71
2024/03/24 05:52:42;;;;;;;4.53;0.90;;;4.30;82.70;;;;;;4993925;28;20242;-71
2024/03/24 05:55:09;;;;;;;0.90;0.80;;;4.30;82.50;;;;;;4991716;28;20450;-71
2024/03/24 05:57:35;;;;;;;1.10;0.80;;;4.30;81.90;;;;;;4997466;28;20472;-71
2024/03/24 06:00:03;;;;;;;2.03;1.10;;;4.30;82.10;;;;;;4994091;28;20521;-71
2024/03/24 06:02:29;;;;;;;1.67;0.80;;;4.30;82.20;;;;;;4990263;28;20532;-72
2024/03/24 06:04:54;;;;;;;2.67;1.10;;;4.40;81.90;;;;;;4993633;28;20842;-71
2024/03/24 06:07:21;;;;;;;1.43;0.90;;;4.40;81.90;;;;;;4998384;28;20430;-70
2024/03/24 06:09:47;;;;;;;1.57;0.90;;;4.50;81.80;;;;;;4993447;28;20190;-71
2024/03/24 06:12:12;;;;;;;1.47;1.07;;;4.50;81.50;;;;;;4994325;28;20506;-71
2024/03/24 06:14:38;;;;;;;2.33;1.00;;;4.50;81.70;;;;;;4990721;28;20284;-71
2024/03/24 06:17:04;;;;;;;6.80;1.10;;;4.50;81.40;;;;;;4990597;28;20202;-72
2024/03/24 06:19:30;;;;;;;1.70;1.20;;;4.50;81.50;;;;;;4987939;28;20183;-71
2024/03/24 06:21:55;;;;;;;1.33;0.80;;;4.60;81.80;;;;;;4997671;28;20532;-71
2024/03/24 06:24:21;;;;;;;1.10;0.90;;;4.70;81.40;;;;;;4991458;28;20194;-73
2024/03/24 06:26:47;;;;;;;3.50;1.10;;;4.80;81.20;;;;;;4997662;28;20539;-71
2024/03/24 06:29:12;;;;;;;1.43;0.90;;;4.70;80.30;;;;;;4992162;28;20197;-72
2024/03/24 06:31:38;;;;;;;4.50;1.27;;;4.70;80.50;;;;;;4984148;28;20202;-72
2024/03/24 06:34:06;;;;;;;1.53;1.17;;;4.70;80.60;;;;;;4989770;28;20563;-71
2024/03/24 06:36:37;;;;;;;1.70;1.10;;;4.60;80.30;;;;;;4989180;28;20186;-71
2024/03/24 06:39:03;;;;;;;2.20;1.17;;;4.60;80.80;;;;;;4991326;28;20525;-70
2024/03/24 06:41:29;;;;;;;3.37;1.30;;;4.60;80.80;;;;;;4993061;28;20466;-72
2024/03/24 06:43:55;;;;;;;2.90;1.30;;;4.60;80.30;;;;;;4994620;28;20504;-70
2024/03/24 06:46:21;;;;;;;2.07;1.10;;;4.70;80.20;;;;;;4997952;28;20281;-71
2024/03/24 06:48:47;;;;;;;2.10;1.20;;;4.80;79.70;;;;;;4995359;28;20433;-74
2024/03/24 06:51:12;;;;;;;2.50;1.20;;;4.80;79.30;;;;;;4986752;28;20868;-71
2024/03/24 06:53:38;;;;;;;3.10;1.30;;;4.90;78.90;;;;;;4991043;28;20673;-71
2024/03/24 06:56:04;;;;;;;2.20;1.40;;;5.10;78.90;;;;;;4989354;28;20615;-71
2024/03/24 06:58:30;;;;;;;3.20;1.53;;;5.10;78.90;;;;;;4999464;28;20583;-71
2024/03/24 07:00:55;;;;;;;2.20;1.10;;;5.20;77.40;;;;;;4987195;28;20461;-71
2024/03/24 07:03:21;;;;;;;1.90;1.10;;;5.30;76.70;;;;;;4991947;28;20603;-72
2024/03/24 07:05:46;;;;;;;2.03;1.30;;;5.40;75.70;;;;;;4989093;28;20187;-72
2024/03/24 07:08:12;;;;;;;3.33;1.53;;;5.50;76.10;;;;;;4989557;28;20182;-70
2024/03/24 07:10:38;;;;;;;2.33;1.17;;;5.50;75.90;;;;;;4990473;28;20266;-71
2024/03/24 07:13:03;;;;;;;1.63;1.13;;;5.50;73.60;;;;;;4987159;28;20183;-71
2024/03/24 07:15:30;;;;;;;2.03;1.23;;;5.60;72.30;;;;;;4991406;28;20574;-71
2024/03/24 07:17:55;;;;;;;2.00;1.13;;;5.60;72.60;;;;;;4998262;28;20210;-71
2024/03/24 07:20:21;;;;;;;1.87;1.23;;;5.70;73.00;;;;;;4989866;28;20529;-71
2024/03/24 07:22:46;;;;;;;1.77;1.23;;;5.60;72.40;;;;;;4992957;28;20210;-73
2024/03/24 07:25:12;;;;;;;3.03;1.27;;;5.70;72.70;;;;;;4997261;28;20269;-70
2024/03/24 07:27:38;;;;;;;1.30;1.00;;;5.70;72.30;;;;;;4987547;28;20664;-72
2024/03/24 07:30:06;;;;;;;2.10;1.33;;;5.70;71.80;;;;;;4990694;28;20501;-72
2024/03/24 07:32:32;;;;;;;2.80;1.63;;;5.70;72.10;;;;;;4984689;28;20458;-73
2024/03/24 07:34:58;;;;;;;3.20;1.40;;;5.60;71.70;;;;;;4995583;28;20923;-72
2024/03/24 07:37:23;;;;;;;2.70;1.37;;;5.60;72.60;;;;;;4993762;28;20464;-73
2024/03/24 07:39:49;;;;;;;3.67;1.80;;;5.60;72.30;;;;;;4992598;28;20567;-72
2024/03/24 07:42:14;;;;;;;2.70;1.50;;;5.60;71.60;;;;;;4988127;28;20241;-73
2024/03/24 07:44:40;;;;;;;3.43;1.60;;;5.60;72.00;;;;;;4989497;28;20196;-72
2024/03/24 07:47:06;;;;;;;1.73;1.40;;;5.70;72.30;;;;;;4998217;28;20184;-72
2024/03/24 07:49:35;;;;;;;4.10;1.37;;;5.70;71.70;;;;;;5002356;28;20492;-72
2024/03/24 07:52:00;;;;;;;1.33;1.13;;;5.70;70.20;;;;;;4991484;28;20457;-72
2024/03/24 07:54:26;;;;;;;3.27;1.50;;;5.80;70.20;;;;;;5001654;28;20492;-73
2024/03/24 07:56:52;;;;;;;2.67;1.77;;;5.80;69.80;;;;;;4989441;28;20741;-72
2024/03/24 07:59:19;;;;;;;2.70;1.70;;;6.00;69.20;;;;;;5000762;28;20507;-71
2024/03/24 08:01:45;;;;;;;3.00;1.40;;;6.00;69.20;;;;;;4982197;28;20217;-71
2024/03/24 08:04:10;;;;;;;1.67;0.80;;;6.10;69.20;;;;;;4993655;28;20414;-72
2024/03/24 08:06:36;;;;;;;4.63;1.70;;;6.20;69.10;;;;;;4993804;28;20634;-70
2024/03/24 08:09:02;;;;;;;1.77;1.20;;;6.20;69.50;;;;;;4992064;28;20186;-71
2024/03/24 08:11:28;;;;;;;2.60;0.70;;;6.20;69.70;;;;;;4990387;28;20465;-71
2024/03/24 08:13:54;;;;;;;2.10;1.17;;;6.10;70.20;;;;;;4989839;28;20445;-72
2024/03/24 08:16:19;;;;;;;4.77;1.30;;;6.10;70.50;;;;;;4992551;28;20424;-72
2024/03/24 08:18:45;;;;;;;1.77;1.20;;;6.10;70.50;;;;;;4996187;28;20248;-70
2024/03/24 08:21:11;;;;;;;1.30;0.80;;;6.10;70.10;;;;;;4985335;28;20692;-72
2024/03/24 08:23:37;;;;;;;2.20;1.50;;;6.10;70.50;;;;;;4992525;28;20266;-71
2024/03/24 08:26:03;;;;;;;2.77;1.20;;;6.30;70.40;;;;;;4992067;28;20581;-72
2024/03/24 08:28:28;;;;;;;13.17;1.40;;;6.50;70.20;;;;;;5004751;28;20428;-71
2024/03/24 08:30:54;;;;;;;2.20;1.17;;;6.60;69.70;;;;;;4993297;28;20210;-71
2024/03/24 08:33:19;;;;;;;2.43;1.20;;;6.60;69.10;;;;;;4991556;28;20197;-71
2024/03/24 08:35:45;;;;;;;2.40;1.40;;;6.70;69.20;;;;;;5000332;28;20246;-71
2024/03/24 08:38:11;;;;;;;3.10;1.40;;;6.80;68.90;;;;;;5011078;28;20229;-71
2024/03/24 08:40:36;;;;;;;2.17;1.03;;;6.90;68.00;;;;;;4992542;28;20271;-73
2024/03/24 08:43:02;;;;;;;1.90;1.37;;;7.10;68.20;;;;;;5003115;28;20206;-72
2024/03/24 08:45:27;;;;;;;2.73;1.60;;;7.30;68.30;;;;;;5003125;28;20250;-71
2024/03/24 08:47:53;;;;;;;3.77;1.30;;;7.60;67.00;;;;;;5008692;28;20190;-71
2024/03/24 08:50:19;;;;;;;3.30;1.40;;;7.60;66.10;;;;;;5007651;28;20544;-73
2024/03/24 08:52:44;;;;;;;3.53;1.43;;;7.60;66.10;;;;;;4992536;28;20217;-71
2024/03/24 08:55:10;;;;;;;3.50;1.50;;;7.70;66.30;;;;;;5004180;28;20195;-72
2024/03/24 08:57:37;;;;;;;3.00;1.70;;;7.50;66.00;;;;;;4996576;28;20210;-72
2024/03/24 09:00:04;;;;;;;3.33;1.10;;;7.60;65.80;;;;;;4992288;28;20190;-72
2024/03/24 09:02:30;;;;;;;3.77;1.50;;;7.60;66.30;;;;;;4993178;28;20451;-71
2024/03/24 09:04:56;;;;;;;3.00;1.17;;;7.60;66.10;;;;;;4992655;28;20429;-72
2024/03/24 09:07:21;;;;;;;2.70;1.17;;;7.70;65.60;;;;;;4994105;28;20197;-73
2024/03/24 09:09:48;;;;;;;2.97;1.33;;;7.50;66.10;;;;;;4999123;28;20286;-71
2024/03/24 09:12:14;;;;;;;6.50;1.53;;;7.50;65.80;;;;;;5007696;28;20236;-71
2024/03/24 09:14:40;;;;;;;3.40;1.53;;;7.30;66.00;;;;;;5000346;28;20417;-73
2024/03/24 09:17:05;;;;;;;3.57;1.53;;;7.30;66.10;;;;;;4992077;28;20517;-72
2024/03/24 09:19:31;;;;;;;6.50;1.50;;;7.30;65.80;;;;;;4990301;28;20285;-71
2024/03/24 09:21:56;;;;;;;5.67;1.73;;;7.30;66.40;;;;;;4984574;28;20619;-72
2024/03/24 09:24:22;;;;;;;6.03;1.10;;;7.30;66.60;;;;;;4992147;28;20736;-71
2024/03/24 09:26:50;;;;;;;7.13;2.27;;;7.30;66.60;;;;;;4994819;28;20205;-72
2024/03/24 09:29:17;;;;;;;3.70;2.40;;;7.40;66.30;;;;;;4990062;28;20193;-72
2024/03/24 09:31:42;;;;;;;6.10;2.07;;;7.50;66.30;;;;;;4984365;28;21218;-72
2024/03/24 09:34:08;;;;;;;6.07;2.00;;;7.60;66.00;;;;;;4997058;28;20429;-71
2024/03/24 09:36:33;;;;;;;2.10;1.43;;;7.60;66.10;;;;;;4992269;28;20202;-73
2024/03/24 09:38:59;;;;;;;4.97;2.10;;;7.60;66.10;;;;;;4994942;28;20241;-73
2024/03/24 09:41:28;;;;;;;4.10;2.03;;;7.40;66.10;;;;;;4986849;28;20214;-72
2024/03/24 09:43:54;;;;;;;5.47;1.90;;;7.40;66.90;;;;;;4997522;28;20269;-71
2024/03/24 09:46:20;;;;;;;8.10;1.87;;;7.50;66.70;;;;;;4994034;28;20445;-71
2024/03/24 09:48:49;;;;;;;4.07;1.80;;;7.60;66.90;;;;;;4995814;28;20433;-71
2024/03/24 09:51:16;;;;;;;6.30;2.57;;;7.70;67.20;;;;;;4986640;28;21317;-71
2024/03/24 09:53:43;;;;;;;2.73;1.77;;;7.70;66.60;;;;;;4987301;28;20476;-71
2024/03/24 09:56:09;;;;;;;3.17;1.83;;;7.70;67.00;;;;;;4992332;28;20436;-71
2024/03/24 09:58:36;;;;;;;6.10;2.00;;;7.50;66.70;;;;;;4996040;28;20465;-71
2024/03/24 10:01:03;;;;;;;5.20;3.30;;;7.50;67.50;;;;;;4987974;28;20842;-71
2024/03/24 10:03:29;;;;;;;4.10;2.10;;;7.30;67.60;;;;;;4987763;28;20414;-70
2024/03/24 10:05:59;;;;;;;7.40;2.10;;;7.20;67.70;;;;;;4992717;28;20496;-70
2024/03/24 10:08:35;;;;;;;2.60;1.53;;;7.30;67.70;;;;;;4986992;28;20449;-71
2024/03/24 10:11:29;;;;;;;10.90;3.10;;;7.40;67.70;;;;;;4990900;28;20518;-70
2024/03/24 10:13:57;;;;;;;4.77;2.00;;;7.40;67.60;;;;;;4993324;28;20429;-71
2024/03/24 10:16:23;;;;;;;5.33;1.90;;;7.30;68.00;;;;;;4986463;28;20490;-72
2024/03/24 10:18:49;;;;;;;4.23;1.70;;;7.20;68.00;;;;;;4987075;28;20559;-73
2024/03/24 10:21:15;;;;;;;2.40;1.40;;;7.20;68.20;;;;;;4984168;28;20580;-73
2024/03/24 10:23:41;;;;;;;4.77;2.00;;;7.30;68.00;;;;;;4989384;28;20476;-71
2024/03/24 10:26:07;;;;;;;4.97;2.27;;;7.30;68.20;;;;;;4992998;28;20480;-74
2024/03/24 10:28:33;;;;;;;3.80;1.90;;;7.30;67.90;;;;;;4989530;28;20177;-73
2024/03/24 10:31:05;;;;;;;2.40;1.53;;;7.40;68.20;;;;;;4995387;28;20226;-73
2024/03/24 10:33:36;;;;;;;2.83;1.50;;;7.30;68.00;;;;;;4990053;28;20410;-73
2024/03/24 10:36:08;;;;;;;6.90;1.73;;;7.20;68.20;;;;;;5003613;28;20428;-71
2024/03/24 10:38:36;;;;;;;4.57;1.40;;;7.30;68.50;;;;;;5005156;28;20481;-73
2024/03/24 10:41:08;;;;;;;5.33;2.73;;;7.30;68.50;;;;;;4997836;28;21753;-69
2024/03/24 10:43:37;;;;;;;3.30;1.80;;;7.40;68.30;;;;;;5008173;28;20460;-70
2024/03/24 10:46:03;;;;;;;7.30;2.07;;;7.50;68.50;;;;;;5010082;28;20433;-70
2024/03/24 10:48:33;;;;;;;2.70;1.40;;;7.50;68.20;;;;;;5009240;28;20965;-71
2024/03/24 10:51:07;;;;;;;3.17;1.60;;;7.60;68.20;;;;;;5004327;28;20530;-71
2024/03/24 10:53:33;;;;;;;2.30;1.80;;;7.60;68.00;;;;;;5006940;28;20434;-71
2024/03/24 10:56:00;;;;;;;4.37;2.10;;;7.80;67.90;;;;;;5007981;28;20467;-72
2024/03/24 10:58:27;;;;;;;3.93;1.97;;;7.90;67.70;;;;;;5006392;28;20480;-68
2024/03/24 11:00:54;;;;;;;4.17;1.73;;;7.80;67.00;;;;;;5006951;28;20467;-69
2024/03/24 11:03:22;;;;;;;2.70;1.70;;;7.90;67.20;;;;;;5003801;28;20436;-69
2024/03/24 11:05:50;;;;;;;3.13;2.13;;;8.20;67.20;;;;;;5009740;28;20444;-70
2024/03/24 11:08:17;;;;;;;3.77;1.90;;;8.30;66.60;;;;;;5007956;28;20444;-69
2024/03/24 11:10:45;;;;;;;6.07;1.87;;;8.10;66.60;;;;;;5008344;28;20964;-69
2024/03/24 11:13:14;;;;;;;7.50;2.47;;;8.20;67.00;;;;;;5010000;28;20429;-72
2024/03/24 11:15:44;;;;;;;5.50;1.90;;;8.10;66.70;;;;;;5017248;28;20422;-70
2024/03/24 11:18:29;;;;;;;6.07;2.30;;;8.00;66.90;;;;;;5011787;28;20485;-72
2024/03/24 11:21:00;;;;;;;4.67;2.50;;;7.90;67.00;;;;;;5006184;28;20579;-70
2024/03/24 11:23:40;;;;;;;3.13;1.73;;;7.80;67.20;;;;;;5018055;28;20416;-70
2024/03/24 11:26:08;;;;;;;12.60;2.17;;;7.80;67.50;;;;;;5011428;28;20464;-72
2024/03/24 11:28:52;;;;;;;1.80;1.53;;;7.90;67.30;;;;;;5025548;28;20431;-71
2024/03/24 11:31:20;;;;;;;2.40;1.57;;;7.80;67.90;;;;;;5007665;28;20453;-70
2024/03/24 11:34:04;;;;;;;4.17;2.43;;;7.80;67.90;;;;;;5013366;28;20422;-70
2024/03/24 11:36:32;;;;;;;5.00;2.07;;;7.80;68.00;;;;;;5008632;28;20433;-70
2024/03/24 11:38:59;;;;;;;4.60;2.13;;;7.80;68.30;;;;;;5016567;28;20473;-72
2024/03/24 11:41:25;;;;;;;4.90;2.20;;;7.70;68.50;;;;;;5008616;28;20484;-70
2024/03/24 11:44:01;;;;;;;6.70;2.10;;;7.60;69.10;;;;;;5013278;28;20441;-68
2024/03/24 11:46:28;;;;;;;3.50;1.93;;;7.80;69.10;;;;;;5013106;28;20425;-72
2024/03/24 11:48:58;;;;;;;3.97;2.20;;;7.70;68.60;;;;;;5011009;28;20520;-71
2024/03/24 11:51:28;;;;;;;2.60;1.53;;;7.70;68.80;;;;;;5011865;28;20438;-70
2024/03/24 11:53:54;;;;;;;5.27;2.27;;;7.60;68.00;;;;;;5019656;28;20460;-68
2024/03/24 11:56:20;;;;;;;3.33;1.87;;;7.80;68.30;;;;;;5014720;28;20425;-71
2024/03/24 11:58:52;;;;;;;4.50;2.50;;;8.00;68.00;;;;;;5019957;28;20454;-70
2024/03/24 12:01:19;;;;;;;2.83;1.83;;;8.40;67.70;;;;;;5012055;28;20481;-71
2024/03/24 12:03:46;;;;;;;4.13;1.63;;;8.50;67.30;;;;;;5015252;28;20551;-72
2024/03/24 12:06:15;;;;;;;2.90;1.70;;;8.40;66.70;;;;;;5013192;28;20480;-70
2024/03/24 12:08:42;;;;;;;3.53;1.63;;;8.30;66.70;;;;;;5015162;28;20441;-69
2024/03/24 12:11:08;;;;;;;4.07;2.10;;;8.10;67.30;;;;;;5007525;28;20496;-70
2024/03/24 12:13:35;;;;;;;4.03;2.20;;;8.10;67.50;;;;;;5009101;28;20528;-74
2024/03/24 12:16:01;;;;;;;3.87;2.17;;;8.20;67.70;;;;;;5012825;28;20414;-72
2024/03/24 12:18:27;;;;;;;4.90;1.67;;;8.20;68.50;;;;;;5011305;28;20487;-71
2024/03/24 12:20:53;;;;;;;4.60;1.97;;;7.90;67.70;;;;;;5013446;28;20479;-72
2024/03/24 12:23:20;;;;;;;4.70;1.60;;;7.80;68.30;;;;;;5016557;28;20210;-71
2024/03/24 12:25:49;;;;;;;5.90;1.70;;;7.60;67.90;;;;;;5019748;28;20512;-69
2024/03/24 12:28:17;;;;;;;1.97;1.17;;;7.60;68.60;;;;;;5018252;28;20448;-70
2024/03/24 12:30:56;;;;;;;4.80;2.07;;;7.40;68.90;;;;;;5012946;28;20434;-71
2024/03/24 12:33:27;;;;;;;2.07;1.10;;;7.40;69.50;;;;;;5017213;28;20500;-72
2024/03/24 12:35:56;;;;;;;3.60;2.17;;;7.40;69.50;;;;;;5014274;28;20569;-72
2024/03/24 12:38:23;;;;;;;2.73;1.80;;;7.30;69.50;;;;;;5023095;28;20469;-72
2024/03/24 12:40:53;;;;;;;3.30;1.67;;;7.40;69.90;;;;;;5012665;28;20523;-71
2024/03/24 12:43:26;;;;;;;3.17;1.43;;;7.40;69.40;;;;;;5013715;28;20418;-71
2024/03/24 12:46:01;;;;;;;4.60;1.10;;;7.30;69.40;;;;;;5017697;28;20446;-71
2024/03/24 12:48:30;;;;;;;7.90;1.70;;;7.40;69.40;;;;;;5013706;28;20438;-72
2024/03/24 12:50:57;;;;;;;4.60;1.43;;;7.50;69.20;;;;;;5014512;28;20470;-71
2024/03/24 12:53:42;;;;;;;4.40;2.33;;;7.50;68.50;;;;;;5004628;28;20494;-72
2024/03/24 12:56:10;;;;;;;3.53;1.70;;;7.60;68.50;;;;;;5010849;28;20418;-70